4. Juli 2022

Uhrzeit Code Wetter Temp. Sichtweite Wolkendecke Wind METAR/SPECI
7:00 pm
V
75 °F 15 mi 25.000 ft 250° 250° 5 kt METAR CYOW 042300Z 25005KT 15SM FEW075 SCT100 BKN250 24/12 A3005 RMK AC1AC4CI3 AC TR SLP178 DENSITY ALT 1400FT
6:00 pm
V
77 °F 15 mi 26.000 ft 280° 280° 8 kt METAR CYOW 042200Z 28008KT 15SM FEW075 FEW100 BKN260 25/10 A3005 RMK CU1AC1CI5 AC TR SLP179 DENSITY ALT 1500FT
5:00 pm
V
79 °F 15 mi 26.000 ft 310° 310° 8 kt METAR CYOW 042100Z 31008KT 220V320 15SM FEW070 BKN260 26/09 A3006 RMK CU2CI3 SLP183 DENSITY ALT 1600FT
4:00 pm
V
79 °F 15 mi 26.000 ft 300° 300° 11 - 17 kt METAR CYOW 042000Z 30011G17KT 240V320 15SM SCT075 BKN260 26/10 A3008 RMK CU3CI2 SLP187 DENSITY ALT 1700FT
3:00 pm
V
81 °F 15 mi - 300° 300° 13 - 19 kt METAR CYOW 041900Z 30013G19KT 280V020 15SM SCT075 SCT260 27/08 A3009 RMK CU3CI1 SLP191 DENSITY ALT 1600FT
2:00 pm
V
77 °F 15 mi - 250° 250° 7 kt METAR CYOW 041800Z 25007KT 230V310 15SM SCT070 SCT260 25/09 A3010 RMK CU4CI1 CI TR SLP195 DENSITY ALT 1500FT
1:00 pm
V
77 °F 15 mi - Var Var 5 kt METAR CYOW 041700Z VRB05KT 15SM SCT065 25/09 A3011 RMK CU4 SLP197 DENSITY ALT 1500FT
12:00 pm
V
73 °F 15 mi - Var 000° 0 kt METAR CYOW 041600Z 00000KT 15SM FEW050 23/11 A3012 RMK CU2 SLP203 DENSITY ALT 1200FT
11:00 am
V
73 °F 15 mi - 260° 260° 4 kt METAR CYOW 041500Z 26004KT 180V310 15SM FEW050 FEW160 FEW260 23/11 A3013 RMK CU1AC1CI1 CU TR AC TR CI TR SLP206 DENSITY ALT 1200FT
10:00 am
V
70 °F 15 mi - 260° 260° 4 kt METAR CYOW 041400Z 26004KT 190V290 15SM FEW160 FEW260 21/12 A3014 RMK AC1CI1 CI TR SLP208 DENSITY ALT 1000FT
9:00 am
V
68 °F 15 mi - Var Var 2 kt METAR CYOW 041300Z VRB02KT 15SM FEW090 FEW160 20/12 A3014 RMK AC1AC1 AC TR SLP209 DENSITY ALT 800FT
8:00 am
V
64 °F 15 mi - 290° 290° 4 kt METAR CYOW 041200Z 29004KT 15SM FEW092 FEW260 18/13 A3014 RMK AC1CI1 CI TR SLP208 DENSITY ALT 600FT
7:00 am
V
61 °F 15 mi - 270° 270° 4 kt METAR CYOW 041100Z 27004KT 15SM FEW100 SCT260 16/13 A3014 RMK AC2CI1 SLP207 DENSITY ALT 400FT
6:00 am
V
57 °F 15 mi - 280° 280° 5 kt METAR CYOW 041000Z 28005KT 15SM FEW100 FEW250 14/12 A3014 RMK AC1CI1 SLP207
5:00 am
V
57 °F 15 mi - 230° 230° 4 kt METAR CYOW 040900Z 23004KT 15SM SCT100 SCT250 14/12 A3012 RMK AC4CI1 CI TR SLP202
4:00 am
V
59 °F 15 mi 10.000 ft 270° 270° 5 kt METAR CYOW 040800Z 27005KT 15SM BKN100 15/12 A3011 RMK AC7 SLP197
3:00 am
V
57 °F 15 mi 10.000 ft 240° 240° 7 kt METAR CYOW 040700Z 24007KT 15SM BKN100 14/11 A3011 RMK AC5 SLP198
2:00 am
V
63 °F 15 mi 10.000 ft 310° 310° 7 kt METAR CYOW 040600Z 31007KT 15SM BKN100 17/11 A3010 RMK AC5 SLP194 DENSITY ALT 500FT
1:00 am
V
64 °F 15 mi 10.000 ft 300° 300° 6 kt METAR CYOW 040500Z 30006KT 15SM BKN100 18/11 A3010 RMK AC7 SLP194 DENSITY ALT 700FT
12:00 am
V
61 °F 15 mi - 270° 270° 6 kt METAR CYOW 040400Z 27006KT 15SM SCT100 16/10 A3008 RMK AC4 SLP189 DENSITY ALT 500FT

3. Juli 2022

Uhrzeit Code Wetter Temp. Sichtweite Wolkendecke Wind METAR/SPECI
11:00 pm
V
66 °F 15 mi - 280° 280° 7 kt METAR CYOW 040300Z 28007KT 15SM SCT100 19/10 A3007 RMK AC3 SLP186 DENSITY ALT 800FT
10:00 pm
V
68 °F 15 mi 10.000 ft 290° 290° 5 kt METAR CYOW 040200Z 29005KT 15SM BKN100 20/09 A3006 RMK AC5 SLP183 DENSITY ALT 900FT
9:00 pm
V
70 °F 15 mi 9.500 ft 310° 310° 8 kt METAR CYOW 040100Z 31008KT 15SM FEW080 BKN095 21/08 A3006 RMK AC2AC5 SLP180 DENSITY ALT 1100FT
8:00 pm
V
72 °F 15 mi 9.000 ft 340° 340° 9 kt METAR CYOW 040000Z 34009KT 15SM FEW075 BKN090 BKN250 22/09 A3005 RMK CU1AC6CI1 CU TR CI TR SLP178 DENSITY ALT 1200FT
7:00 pm
V
75 °F 15 mi 10.000 ft 310° 310° 12 kt METAR CYOW 032300Z 31012KT 15SM FEW075 BKN100 BKN250 24/08 A3004 RMK CU1AC5CI1 CI TR SLP174 DENSITY ALT 1400FT
6:00 pm
V
77 °F 15 mi - 260° 260° 13 - 19 kt METAR CYOW 032200Z 26013G19KT 15SM FEW075 SCT095 SCT250 25/08 A3003 RMK CU2AC2CI1 CI TR SH DIST NE SLP170 DENSITY ALT 1500FT
5:00 pm
V
77 °F 15 mi 25.000 ft 260° 260° 12 - 21 kt METAR CYOW 032100Z 26012G21KT 15SM SCT070 BKN250 25/08 A3003 RMK CU4CI1 SLP171 DENSITY ALT 1500FT
4:00 pm
V
77 °F 15 mi - 270° 270° 13 kt METAR CYOW 032000Z 27013KT 15SM SCT065 SCT250 25/08 A3003 RMK CU3CI1 SLP172 DENSITY ALT 1500FT
3:00 pm
V
75 °F 15 mi - 290° 290° 15 - 22 kt METAR CYOW 031900Z 29015G22KT 250V320 15SM SCT065 SCT250 24/08 A3003 RMK CU3CI1 CI TR SLP173 DENSITY ALT 1400FT
2:00 pm
V
73 °F 15 mi - 280° 280° 13 - 20 kt METAR CYOW 031800Z 28013G20KT 15SM FEW050 FEW250 23/09 A3005 RMK CU2CI1 CI TR SLP177 DENSITY ALT 1300FT
1:00 pm
V
73 °F 15 mi - 250° 250° 10 - 21 kt METAR CYOW 031700Z 25010G21KT 240V300 15SM FEW050 FEW250 23/09 A3005 RMK CU1CI1 CI TR SLP178 DENSITY ALT 1200FT
12:00 pm
V
70 °F 15 mi - 280° 280° 12 - 18 kt METAR CYOW 031600Z 28012G18KT 15SM FEW050 21/09 A3005 RMK CU1 CU TR SLP178 DENSITY ALT 1100FT
11:00 am
V
70 °F 15 mi - 290° 290° 12 - 18 kt METAR CYOW 031500Z 29012G18KT 15SM FEW045 21/09 A3005 RMK CU1 CU TR SLP179 DENSITY ALT 1000FT
10:00 am
V
68 °F 15 mi - 290° 290° 11 kt METAR CYOW 031400Z 29011KT 250V330 15SM FEW035 20/10 A3005 RMK CU1 CU TR SLP177 DENSITY ALT 900FT
9:00 am
V
66 °F 15 mi - 290° 290° 8 kt METAR CYOW 031300Z 29008KT 15SM FEW035 FEW080 FEW250 19/10 A3004 RMK CF1AC1CI1 CF TR AC TR CI TR SLP174 DENSITY ALT 900FT
8:00 am
V
64 °F 15 mi - 300° 300° 9 kt METAR CYOW 031200Z 30009KT 15SM FEW080 18/11 A3003 RMK AC1 AC TR SLP171 DENSITY ALT 700FT
7:00 am
V
57 °F 15 mi - 270° 270° 6 kt METAR CYOW 031100Z 27006KT 15SM FEW080 14/10 A3001 RMK AC2 SLP164
6:00 am
V
54 °F 15 mi - 260° 260° 5 kt METAR CYOW 031000Z 26005KT 15SM FEW140 12/09 A2999 RMK AC1 ACC ASOCTD SLP157
5:00 am
V
57 °F 15 mi - 300° 300° 5 kt METAR CYOW 030900Z 30005KT 15SM SCT140 14/10 A2997 RMK AC3 SLP149
4:00 am
V
57 °F 15 mi - 280° 280° 5 kt METAR CYOW 030800Z 28005KT 15SM SCT170 14/09 A2994 RMK AC3 SLP141 DENSITY ALT 400FT
3:00 am
V
55 °F 15 mi - 260° 260° 6 kt METAR CYOW 030700Z 26006KT 15SM SKC 13/07 A2993 RMK SLP138
2:00 am
V
59 °F 15 mi - 270° 270° 7 kt METAR CYOW 030600Z 27007KT 15SM SKC 15/07 A2991 RMK SLP131 DENSITY ALT 500FT
1:00 am
V
59 °F 15 mi - 260° 260° 6 kt METAR CYOW 030500Z 26006KT 15SM SKC 15/06 A2990 RMK SLP128 DENSITY ALT 500FT
12:00 am
V
59 °F 15 mi - 250° 250° 7 kt METAR CYOW 030400Z 25007KT 15SM SKC 15/06 A2991 RMK SLP129 DENSITY ALT 600FT

2. Juli 2022

Uhrzeit Code Wetter Temp. Sichtweite Wolkendecke Wind METAR/SPECI
11:00 pm
V
63 °F 15 mi - 260° 260° 8 kt METAR CYOW 030300Z 26008KT 15SM SKC 17/05 A2989 RMK SLP124 DENSITY ALT 800FT
10:00 pm
V
68 °F 15 mi - 270° 270° 9 kt METAR CYOW 030200Z 27009KT 15SM FEW080 20/05 A2988 RMK AC1 AC TR SLP119 DENSITY ALT 1100FT
9:00 pm
V
72 °F 8 mi - 270° 270° 11 - 16 kt METAR CYOW 030100Z 27011G16KT 8SM FEW080 22/06 A2985 RMK AC1 AC TR SLP109 DENSITY ALT 1400FT
8:00 pm
V
75 °F 15 mi - 270° 270° 10 kt METAR CYOW 030000Z 27010KT 15SM FEW080 24/08 A2983 RMK CU1 CU TR SLP101 DENSITY ALT 1700FT
7:00 pm
V
79 °F 15 mi - 270° 270° 14 - 20 kt METAR CYOW 022300Z 27014G20KT 15SM SCT080 SCT260 26/08 A2982 RMK CU3CI1 CI TR SLP099 DENSITY ALT 1900FT
6:00 pm
V
79 °F 15 mi - 260° 260° 16 - 23 kt METAR CYOW 022200Z 26016G23KT 15SM SCT080 SCT260 26/09 A2982 RMK CU3CI1 CI TR SLP098 DENSITY ALT 1900FT
5:00 pm
V
81 °F 15 mi - 260° 260° 17 - 27 kt METAR CYOW 022100Z 26017G27KT 15SM SCT075 SCT260 27/08 A2982 RMK CU3CI1 SLP098 DENSITY ALT 2100FT
4:00 pm
V
79 °F 15 mi 7.200 ft 250° 250° 18 kt METAR CYOW 022000Z 25018KT 15SM BKN072 26/10 A2981 RMK CU5 SLP097 DENSITY ALT 1800FT
3:00 pm
V
81 °F 15 mi 7.500 ft 250° 250° 16 - 23 kt METAR CYOW 021900Z 25016G23KT 15SM BKN075 BKN095 27/11 A2982 RMK CU5AC1 SLP099 DENSITY ALT 2000FT
2:00 pm
V
79 °F 15 mi 8.000 ft 240° 240° 15 - 23 kt METAR CYOW 021800Z 24015G23KT 15SM BKN080 26/12 A2983 RMK AC5 SLP101 DENSITY ALT 1900FT
1:00 pm
V
75 °F 15 mi - 240° 240° 14 - 19 kt METAR CYOW 021700Z 24014G19KT 190V270 15SM SCT070 24/09 A2984 RMK AC4 SLP106 DENSITY ALT 1700FT
12:00 pm
V
77 °F 15 mi - 260° 260° 11 - 17 kt METAR CYOW 021600Z 26011G17KT 190V270 15SM FEW070 25/08 A2985 RMK AC1 SLP109 DENSITY ALT 1800FT
11:00 am
V
75 °F 15 mi - 230° 230° 9 kt METAR CYOW 021500Z 23009KT 210V290 15SM FEW060 FEW080 24/08 A2986 RMK CU1AC1 CU TR AC TR SLP113 DENSITY ALT 1600FT
Ältere Daten

Laden Sie unsere App herunter

Einfacher Zugriff auf das gesamte Flugwetter auf Ihrem Mobiltelefon und Tablet.
Mit vielen Funktionen, die auf der Website nicht verfügbar sind, wie Offline-Unterstützung und eine persönliche Flughafenliste.

Wir und Dritte verfolgen dein Internetverhalten auf unserer Website mit Cookies. Wenn du fortfährst, gehen wir davon aus, dass du mit unserer Cookie-Richtlinie einverstanden bist. Mehr erfahren